sensor_id;sensor_type;location;lat;lon;timestamp;P1;durP1;ratioP1;P2;durP2;ratioP2
70213;SDS011;60138;55.808;37.078;2022-11-23T00:00:25;10.80;;;7.27;;
70213;SDS011;60138;55.808;37.078;2022-11-23T00:02:52;10.43;;;7.30;;
70213;SDS011;60138;55.808;37.078;2022-11-23T00:05:18;10.68;;;7.75;;
70213;SDS011;60138;55.808;37.078;2022-11-23T00:07:44;12.30;;;8.20;;
70213;SDS011;60138;55.808;37.078;2022-11-23T00:10:10;10.27;;;7.67;;
70213;SDS011;60138;55.808;37.078;2022-11-23T00:12:36;11.98;;;8.25;;
70213;SDS011;60138;55.808;37.078;2022-11-23T00:15:03;15.70;;;8.68;;
70213;SDS011;60138;55.808;37.078;2022-11-23T00:17:30;15.53;;;8.53;;
70213;SDS011;60138;55.808;37.078;2022-11-23T00:19:55;14.27;;;8.07;;
70213;SDS011;60138;55.808;37.078;2022-11-23T00:22:21;13.13;;;8.63;;
70213;SDS011;60138;55.808;37.078;2022-11-23T00:24:47;13.60;;;8.27;;
70213;SDS011;60138;55.808;37.078;2022-11-23T00:27:13;14.38;;;9.27;;
70213;SDS011;60138;55.808;37.078;2022-11-23T00:29:39;13.73;;;8.50;;
70213;SDS011;60138;55.808;37.078;2022-11-23T00:32:07;16.65;;;8.98;;
70213;SDS011;60138;55.808;37.078;2022-11-23T00:34:35;12.93;;;8.48;;
70213;SDS011;60138;55.808;37.078;2022-11-23T00:37:01;15.30;;;8.77;;
70213;SDS011;60138;55.808;37.078;2022-11-23T00:39:27;14.30;;;8.90;;
70213;SDS011;60138;55.808;37.078;2022-11-23T00:41:53;14.00;;;8.50;;
70213;SDS011;60138;55.808;37.078;2022-11-23T00:44:21;15.43;;;9.18;;
70213;SDS011;60138;55.808;37.078;2022-11-23T00:46:48;15.83;;;8.50;;
70213;SDS011;60138;55.808;37.078;2022-11-23T00:49:14;13.75;;;8.27;;
70213;SDS011;60138;55.808;37.078;2022-11-23T00:51:40;15.65;;;8.20;;
70213;SDS011;60138;55.808;37.078;2022-11-23T00:54:07;13.87;;;8.30;;
70213;SDS011;60138;55.808;37.078;2022-11-23T00:56:36;15.60;;;7.47;;
70213;SDS011;60138;55.808;37.078;2022-11-23T00:59:02;14.30;;;7.75;;
70213;SDS011;60138;55.808;37.078;2022-11-23T01:01:29;14.65;;;8.82;;
70213;SDS011;60138;55.808;37.078;2022-11-23T01:03:57;14.45;;;8.50;;
70213;SDS011;60138;55.808;37.078;2022-11-23T01:06:31;14.85;;;8.80;;
70213;SDS011;60138;55.808;37.078;2022-11-23T01:09:02;12.70;;;8.20;;
70213;SDS011;60138;55.808;37.078;2022-11-23T01:11:30;12.90;;;8.88;;
70213;SDS011;60138;55.808;37.078;2022-11-23T01:13:59;15.93;;;8.80;;
70213;SDS011;60138;55.808;37.078;2022-11-23T01:19:02;15.57;;;9.55;;
70213;SDS011;60138;55.808;37.078;2022-11-23T01:21:30;13.77;;;8.18;;
70213;SDS011;60138;55.808;37.078;2022-11-23T01:23:58;12.93;;;7.73;;
70213;SDS011;60138;55.808;37.078;2022-11-23T01:26:24;14.25;;;7.95;;
70213;SDS011;60138;55.808;37.078;2022-11-23T01:28:50;14.90;;;8.70;;
70213;SDS011;60138;55.808;37.078;2022-11-23T01:31:17;13.23;;;8.00;;
70213;SDS011;60138;55.808;37.078;2022-11-23T01:33:46;13.98;;;7.95;;
70213;SDS011;60138;55.808;37.078;2022-11-23T01:36:13;13.83;;;8.43;;
70213;SDS011;60138;55.808;37.078;2022-11-23T01:38:45;11.68;;;7.90;;
70213;SDS011;60138;55.808;37.078;2022-11-23T01:41:23;13.95;;;8.80;;
70213;SDS011;60138;55.808;37.078;2022-11-23T01:43:56;14.40;;;7.82;;
70213;SDS011;60138;55.808;37.078;2022-11-23T01:46:23;13.30;;;7.40;;
70213;SDS011;60138;55.808;37.078;2022-11-23T01:49:05;13.97;;;7.63;;
70213;SDS011;60138;55.808;37.078;2022-11-23T01:51:36;13.32;;;7.60;;
70213;SDS011;60138;55.808;37.078;2022-11-23T01:54:10;13.15;;;7.55;;
70213;SDS011;60138;55.808;37.078;2022-11-23T01:56:45;16.15;;;7.90;;
70213;SDS011;60138;55.808;37.078;2022-11-23T03:08:25;12.43;;;7.75;;
70213;SDS011;60138;55.808;37.078;2022-11-23T03:10:52;17.80;;;8.65;;
70213;SDS011;60138;55.808;37.078;2022-11-23T03:13:19;16.83;;;8.00;;
70213;SDS011;60138;55.808;37.078;2022-11-23T03:15:45;13.45;;;7.85;;
70213;SDS011;60138;55.808;37.078;2022-11-23T03:18:12;15.93;;;9.20;;
70213;SDS011;60138;55.808;37.078;2022-11-23T03:20:38;14.10;;;8.02;;
70213;SDS011;60138;55.808;37.078;2022-11-23T03:23:06;12.43;;;7.60;;
70213;SDS011;60138;55.808;37.078;2022-11-23T03:25:34;13.33;;;8.23;;
70213;SDS011;60138;55.808;37.078;2022-11-23T03:28:02;14.93;;;8.40;;
70213;SDS011;60138;55.808;37.078;2022-11-23T03:30:28;16.40;;;8.50;;
70213;SDS011;60138;55.808;37.078;2022-11-23T03:32:54;13.33;;;6.73;;
70213;SDS011;60138;55.808;37.078;2022-11-23T03:35:20;14.43;;;7.82;;
70213;SDS011;60138;55.808;37.078;2022-11-23T03:38:04;11.43;;;6.78;;
70213;SDS011;60138;55.808;37.078;2022-11-23T03:40:30;14.00;;;7.47;;
70213;SDS011;60138;55.808;37.078;2022-11-23T03:43:06;15.05;;;7.30;;
70213;SDS011;60138;55.808;37.078;2022-11-23T03:45:32;13.73;;;7.82;;
70213;SDS011;60138;55.808;37.078;2022-11-23T03:47:57;15.87;;;7.30;;
70213;SDS011;60138;55.808;37.078;2022-11-23T03:50:23;12.50;;;7.28;;
70213;SDS011;60138;55.808;37.078;2022-11-23T03:52:49;13.33;;;6.60;;
70213;SDS011;60138;55.808;37.078;2022-11-23T03:55:15;12.50;;;7.72;;
70213;SDS011;60138;55.808;37.078;2022-11-23T03:57:41;14.35;;;7.93;;
70213;SDS011;60138;55.808;37.078;2022-11-23T04:00:08;12.52;;;7.65;;
70213;SDS011;60138;55.808;37.078;2022-11-23T04:02:38;12.20;;;9.07;;
70213;SDS011;60138;55.808;37.078;2022-11-23T04:05:08;12.52;;;8.13;;
70213;SDS011;60138;55.808;37.078;2022-11-23T04:08:03;11.20;;;7.45;;
70213;SDS011;60138;55.808;37.078;2022-11-23T04:10:29;13.95;;;7.40;;
70213;SDS011;60138;55.808;37.078;2022-11-23T04:13:05;11.18;;;7.72;;
70213;SDS011;60138;55.808;37.078;2022-11-23T04:15:30;11.63;;;7.87;;
70213;SDS011;60138;55.808;37.078;2022-11-23T04:17:57;10.73;;;6.90;;
70213;SDS011;60138;55.808;37.078;2022-11-23T04:20:23;13.93;;;8.45;;
70213;SDS011;60138;55.808;37.078;2022-11-23T04:22:48;12.45;;;7.80;;
70213;SDS011;60138;55.808;37.078;2022-11-23T04:25:15;10.00;;;6.93;;
70213;SDS011;60138;55.808;37.078;2022-11-23T04:27:41;12.30;;;7.90;;
70213;SDS011;60138;55.808;37.078;2022-11-23T04:30:07;11.52;;;7.80;;
70213;SDS011;60138;55.808;37.078;2022-11-23T04:32:36;12.32;;;7.43;;
70213;SDS011;60138;55.808;37.078;2022-11-23T04:35:03;9.30;;;6.80;;
70213;SDS011;60138;55.808;37.078;2022-11-23T04:37:29;10.10;;;6.93;;
70213;SDS011;60138;55.808;37.078;2022-11-23T04:39:55;12.90;;;6.97;;
70213;SDS011;60138;55.808;37.078;2022-11-23T04:42:39;9.90;;;6.65;;
70213;SDS011;60138;55.808;37.078;2022-11-23T04:45:04;9.02;;;6.43;;
70213;SDS011;60138;55.808;37.078;2022-11-23T04:47:31;7.40;;;5.80;;
70213;SDS011;60138;55.808;37.078;2022-11-23T04:50:00;9.43;;;6.20;;
70213;SDS011;60138;55.808;37.078;2022-11-23T04:52:28;8.23;;;5.95;;
70213;SDS011;60138;55.808;37.078;2022-11-23T04:54:56;9.15;;;5.30;;
70213;SDS011;60138;55.808;37.078;2022-11-23T04:57:22;8.07;;;5.75;;
70213;SDS011;60138;55.808;37.078;2022-11-23T04:59:50;7.43;;;6.30;;
70213;SDS011;60138;55.808;37.078;2022-11-23T05:02:16;10.27;;;6.60;;
70213;SDS011;60138;55.808;37.078;2022-11-23T05:05:17;8.88;;;5.57;;
70213;SDS011;60138;55.808;37.078;2022-11-23T05:07:43;7.85;;;5.63;;
70213;SDS011;60138;55.808;37.078;2022-11-23T05:10:09;7.73;;;5.37;;
70213;SDS011;60138;55.808;37.078;2022-11-23T05:12:35;8.95;;;5.93;;
70213;SDS011;60138;55.808;37.078;2022-11-23T05:15:02;7.15;;;6.03;;
70213;SDS011;60138;55.808;37.078;2022-11-23T05:17:33;8.73;;;5.80;;
70213;SDS011;60138;55.808;37.078;2022-11-23T05:20:00;10.00;;;5.65;;
70213;SDS011;60138;55.808;37.078;2022-11-23T05:22:29;9.50;;;5.88;;
70213;SDS011;60138;55.808;37.078;2022-11-23T05:24:55;8.43;;;5.78;;
70213;SDS011;60138;55.808;37.078;2022-11-23T05:27:23;10.30;;;5.90;;
70213;SDS011;60138;55.808;37.078;2022-11-23T05:29:49;7.32;;;5.65;;
70213;SDS011;60138;55.808;37.078;2022-11-23T05:32:15;7.88;;;5.90;;
70213;SDS011;60138;55.808;37.078;2022-11-23T05:34:41;11.20;;;7.20;;
70213;SDS011;60138;55.808;37.078;2022-11-23T05:37:09;6.87;;;5.33;;
70213;SDS011;60138;55.808;37.078;2022-11-23T05:39:41;6.68;;;5.63;;
70213;SDS011;60138;55.808;37.078;2022-11-23T05:42:07;6.65;;;5.25;;
70213;SDS011;60138;55.808;37.078;2022-11-23T05:44:37;7.43;;;5.47;;
70213;SDS011;60138;55.808;37.078;2022-11-23T05:47:05;9.48;;;6.70;;
70213;SDS011;60138;55.808;37.078;2022-11-23T05:49:33;8.20;;;6.53;;
70213;SDS011;60138;55.808;37.078;2022-11-23T05:52:00;10.70;;;6.30;;
70213;SDS011;60138;55.808;37.078;2022-11-23T05:54:28;9.38;;;5.50;;
70213;SDS011;60138;55.808;37.078;2022-11-23T05:57:02;8.02;;;5.25;;
70213;SDS011;60138;55.808;37.078;2022-11-23T05:59:37;7.65;;;5.45;;
70213;SDS011;60138;55.808;37.078;2022-11-23T06:02:04;7.87;;;5.93;;
70213;SDS011;60138;55.808;37.078;2022-11-23T06:04:32;8.15;;;5.72;;
70213;SDS011;60138;55.808;37.078;2022-11-23T06:06:58;8.63;;;5.80;;
70213;SDS011;60138;55.808;37.078;2022-11-23T06:09:25;6.60;;;4.97;;
70213;SDS011;60138;55.808;37.078;2022-11-23T06:11:52;6.57;;;5.28;;
70213;SDS011;60138;55.808;37.078;2022-11-23T06:14:19;5.87;;;4.77;;
70213;SDS011;60138;55.808;37.078;2022-11-23T06:16:46;6.47;;;5.03;;
70213;SDS011;60138;55.808;37.078;2022-11-23T06:19:23;9.27;;;6.32;;
70213;SDS011;60138;55.808;37.078;2022-11-23T06:21:52;10.18;;;6.75;;
70213;SDS011;60138;55.808;37.078;2022-11-23T06:24:20;6.50;;;4.97;;
70213;SDS011;60138;55.808;37.078;2022-11-23T06:26:56;7.47;;;5.67;;
70213;SDS011;60138;55.808;37.078;2022-11-23T06:29:22;5.72;;;5.13;;
70213;SDS011;60138;55.808;37.078;2022-11-23T06:31:48;6.32;;;5.18;;
70213;SDS011;60138;55.808;37.078;2022-11-23T06:34:14;6.83;;;5.00;;
70213;SDS011;60138;55.808;37.078;2022-11-23T06:36:40;7.60;;;5.47;;
70213;SDS011;60138;55.808;37.078;2022-11-23T06:39:06;7.73;;;5.87;;
70213;SDS011;60138;55.808;37.078;2022-11-23T06:41:33;8.35;;;5.95;;
70213;SDS011;60138;55.808;37.078;2022-11-23T06:44:01;7.75;;;5.30;;
70213;SDS011;60138;55.808;37.078;2022-11-23T06:46:39;7.65;;;5.63;;
70213;SDS011;60138;55.808;37.078;2022-11-23T06:49:06;5.47;;;4.93;;
70213;SDS011;60138;55.808;37.078;2022-11-23T06:51:31;5.23;;;4.37;;
70213;SDS011;60138;55.808;37.078;2022-11-23T06:53:57;6.13;;;5.07;;
70213;SDS011;60138;55.808;37.078;2022-11-23T06:56:27;6.70;;;4.70;;
70213;SDS011;60138;55.808;37.078;2022-11-23T06:58:55;5.70;;;4.85;;
70213;SDS011;60138;55.808;37.078;2022-11-23T07:01:25;5.70;;;4.40;;
70213;SDS011;60138;55.808;37.078;2022-11-23T07:04:11;8.85;;;5.07;;
70213;SDS011;60138;55.808;37.078;2022-11-23T07:06:44;6.20;;;5.38;;
70213;SDS011;60138;55.808;37.078;2022-11-23T07:09:22;5.87;;;4.57;;
70213;SDS011;60138;55.808;37.078;2022-11-23T07:11:59;6.20;;;4.93;;
70213;SDS011;60138;55.808;37.078;2022-11-23T07:14:25;6.38;;;4.00;;
70213;SDS011;60138;55.808;37.078;2022-11-23T07:16:54;5.50;;;4.07;;
70213;SDS011;60138;55.808;37.078;2022-11-23T07:19:20;5.47;;;4.37;;
70213;SDS011;60138;55.808;37.078;2022-11-23T07:21:47;6.03;;;4.97;;
70213;SDS011;60138;55.808;37.078;2022-11-23T07:24:13;4.65;;;4.13;;
70213;SDS011;60138;55.808;37.078;2022-11-23T07:26:39;6.63;;;5.15;;
70213;SDS011;60138;55.808;37.078;2022-11-23T07:29:05;8.00;;;4.77;;
70213;SDS011;60138;55.808;37.078;2022-11-23T07:31:31;4.57;;;3.90;;
70213;SDS011;60138;55.808;37.078;2022-11-23T07:33:57;6.13;;;5.13;;
70213;SDS011;60138;55.808;37.078;2022-11-23T07:36:23;4.90;;;4.40;;
70213;SDS011;60138;55.808;37.078;2022-11-23T07:38:49;5.47;;;4.38;;
70213;SDS011;60138;55.808;37.078;2022-11-23T07:41:17;5.10;;;4.60;;
70213;SDS011;60138;55.808;37.078;2022-11-23T07:44:00;7.22;;;4.82;;
70213;SDS011;60138;55.808;37.078;2022-11-23T07:46:26;4.78;;;3.90;;
70213;SDS011;60138;55.808;37.078;2022-11-23T07:48:52;5.35;;;4.35;;
70213;SDS011;60138;55.808;37.078;2022-11-23T07:51:18;5.10;;;4.57;;
70213;SDS011;60138;55.808;37.078;2022-11-23T07:53:44;6.32;;;4.88;;
70213;SDS011;60138;55.808;37.078;2022-11-23T07:56:11;10.93;;;5.03;;
70213;SDS011;60138;55.808;37.078;2022-11-23T07:58:36;5.60;;;4.22;;
70213;SDS011;60138;55.808;37.078;2022-11-23T08:01:02;5.27;;;4.53;;
70213;SDS011;60138;55.808;37.078;2022-11-23T08:03:28;5.70;;;4.40;;
70213;SDS011;60138;55.808;37.078;2022-11-23T08:05:54;6.30;;;4.10;;
70213;SDS011;60138;55.808;37.078;2022-11-23T08:08:20;6.20;;;5.30;;
70213;SDS011;60138;55.808;37.078;2022-11-23T08:10:46;6.30;;;5.22;;
70213;SDS011;60138;55.808;37.078;2022-11-23T08:13:12;6.13;;;5.45;;
70213;SDS011;60138;55.808;37.078;2022-11-23T08:15:38;6.22;;;5.05;;
70213;SDS011;60138;55.808;37.078;2022-11-23T08:18:03;7.73;;;5.63;;
70213;SDS011;60138;55.808;37.078;2022-11-23T08:20:30;6.63;;;5.93;;
70213;SDS011;60138;55.808;37.078;2022-11-23T08:22:56;6.53;;;5.50;;
70213;SDS011;60138;55.808;37.078;2022-11-23T08:25:25;9.80;;;6.65;;
70213;SDS011;60138;55.808;37.078;2022-11-23T08:27:56;7.33;;;6.00;;
70213;SDS011;60138;55.808;37.078;2022-11-23T08:30:27;6.55;;;5.50;;
70213;SDS011;60138;55.808;37.078;2022-11-23T08:32:54;9.63;;;5.65;;
70213;SDS011;60138;55.808;37.078;2022-11-23T08:35:20;7.67;;;5.80;;
70213;SDS011;60138;55.808;37.078;2022-11-23T08:37:46;8.57;;;5.43;;
70213;SDS011;60138;55.808;37.078;2022-11-23T08:40:12;8.48;;;5.53;;
70213;SDS011;60138;55.808;37.078;2022-11-23T08:42:38;8.85;;;6.05;;
70213;SDS011;60138;55.808;37.078;2022-11-23T08:45:05;8.37;;;6.13;;
70213;SDS011;60138;55.808;37.078;2022-11-23T08:47:31;6.85;;;5.53;;
70213;SDS011;60138;55.808;37.078;2022-11-23T08:49:58;7.13;;;5.82;;
70213;SDS011;60138;55.808;37.078;2022-11-23T08:52:23;10.18;;;6.78;;
70213;SDS011;60138;55.808;37.078;2022-11-23T08:54:49;7.97;;;5.97;;
70213;SDS011;60138;55.808;37.078;2022-11-23T08:57:15;8.13;;;5.50;;
70213;SDS011;60138;55.808;37.078;2022-11-23T08:59:41;7.17;;;5.80;;
70213;SDS011;60138;55.808;37.078;2022-11-23T09:02:07;7.45;;;6.32;;
70213;SDS011;60138;55.808;37.078;2022-11-23T09:04:36;6.73;;;5.43;;
70213;SDS011;60138;55.808;37.078;2022-11-23T09:07:02;6.97;;;5.47;;
70213;SDS011;60138;55.808;37.078;2022-11-23T09:09:28;6.17;;;5.50;;
70213;SDS011;60138;55.808;37.078;2022-11-23T09:11:53;6.20;;;4.97;;
70213;SDS011;60138;55.808;37.078;2022-11-23T09:14:19;6.10;;;4.80;;
70213;SDS011;60138;55.808;37.078;2022-11-23T09:16:45;6.20;;;4.95;;
70213;SDS011;60138;55.808;37.078;2022-11-23T09:19:14;6.05;;;5.35;;
70213;SDS011;60138;55.808;37.078;2022-11-23T09:21:40;6.13;;;5.40;;
70213;SDS011;60138;55.808;37.078;2022-11-23T09:24:06;5.97;;;5.20;;
70213;SDS011;60138;55.808;37.078;2022-11-23T09:26:32;7.55;;;5.53;;
70213;SDS011;60138;55.808;37.078;2022-11-23T09:28:58;6.55;;;5.72;;
70213;SDS011;60138;55.808;37.078;2022-11-23T09:31:24;6.43;;;5.07;;
70213;SDS011;60138;55.808;37.078;2022-11-23T09:33:53;6.05;;;4.95;;
70213;SDS011;60138;55.808;37.078;2022-11-23T09:36:19;6.88;;;5.32;;
70213;SDS011;60138;55.808;37.078;2022-11-23T09:38:47;6.43;;;5.77;;
70213;SDS011;60138;55.808;37.078;2022-11-23T09:44:03;7.80;;;6.35;;
70213;SDS011;60138;55.808;37.078;2022-11-23T09:49:20;10.93;;;6.97;;
70213;SDS011;60138;55.808;37.078;2022-11-23T09:51:53;9.73;;;6.72;;
70213;SDS011;60138;55.808;37.078;2022-11-23T09:54:22;10.25;;;7.18;;
70213;SDS011;60138;55.808;37.078;2022-11-23T09:56:52;12.00;;;9.23;;
70213;SDS011;60138;55.808;37.078;2022-11-23T09:59:32;12.30;;;10.10;;
70213;SDS011;60138;55.808;37.078;2022-11-23T10:02:05;16.73;;;9.17;;
70213;SDS011;60138;55.808;37.078;2022-11-23T10:04:43;14.57;;;9.32;;
70213;SDS011;60138;55.808;37.078;2022-11-23T10:10:09;12.70;;;9.43;;
70213;SDS011;60138;55.808;37.078;2022-11-23T10:18:45;14.20;;;8.85;;
70213;SDS011;60138;55.808;37.078;2022-11-23T10:24:16;9.48;;;8.43;;
70213;SDS011;60138;55.808;37.078;2022-11-23T10:26:45;9.90;;;7.23;;
70213;SDS011;60138;55.808;37.078;2022-11-23T10:29:14;7.38;;;6.20;;
70213;SDS011;60138;55.808;37.078;2022-11-23T10:31:45;10.35;;;7.55;;
70213;SDS011;60138;55.808;37.078;2022-11-23T10:34:16;9.05;;;6.10;;
70213;SDS011;60138;55.808;37.078;2022-11-23T10:37:06;8.18;;;6.55;;
70213;SDS011;60138;55.808;37.078;2022-11-23T10:39:36;7.57;;;5.87;;
70213;SDS011;60138;55.808;37.078;2022-11-23T10:42:03;6.25;;;5.22;;
70213;SDS011;60138;55.808;37.078;2022-11-23T10:44:57;7.18;;;5.10;;
70213;SDS011;60138;55.808;37.078;2022-11-23T10:47:34;6.45;;;5.85;;
70213;SDS011;60138;55.808;37.078;2022-11-23T10:50:19;7.53;;;4.73;;
70213;SDS011;60138;55.808;37.078;2022-11-23T10:52:55;7.93;;;4.97;;
70213;SDS011;60138;55.808;37.078;2022-11-23T10:55:25;6.57;;;5.88;;
70213;SDS011;60138;55.808;37.078;2022-11-23T10:57:55;6.28;;;4.68;;
70213;SDS011;60138;55.808;37.078;2022-11-23T11:00:23;8.48;;;5.28;;
70213;SDS011;60138;55.808;37.078;2022-11-23T11:02:51;6.50;;;5.07;;
70213;SDS011;60138;55.808;37.078;2022-11-23T11:05:32;6.30;;;5.10;;
70213;SDS011;60138;55.808;37.078;2022-11-23T11:08:12;7.53;;;6.03;;
70213;SDS011;60138;55.808;37.078;2022-11-23T11:10:41;5.43;;;4.38;;
70213;SDS011;60138;55.808;37.078;2022-11-23T11:13:24;5.47;;;4.97;;
70213;SDS011;60138;55.808;37.078;2022-11-23T11:18:19;5.25;;;4.57;;
70213;SDS011;60138;55.808;37.078;2022-11-23T11:20:46;6.53;;;5.00;;
70213;SDS011;60138;55.808;37.078;2022-11-23T11:23:19;4.68;;;4.22;;
70213;SDS011;60138;55.808;37.078;2022-11-23T11:25:46;5.00;;;4.43;;
70213;SDS011;60138;55.808;37.078;2022-11-23T11:28:18;4.68;;;4.05;;
70213;SDS011;60138;55.808;37.078;2022-11-23T11:30:45;4.65;;;3.83;;
70213;SDS011;60138;55.808;37.078;2022-11-23T11:33:40;5.25;;;4.40;;
70213;SDS011;60138;55.808;37.078;2022-11-23T11:36:11;4.68;;;4.00;;
70213;SDS011;60138;55.808;37.078;2022-11-23T11:38:40;4.40;;;3.50;;
70213;SDS011;60138;55.808;37.078;2022-11-23T11:41:13;4.45;;;4.03;;
70213;SDS011;60138;55.808;37.078;2022-11-23T11:46:12;5.25;;;4.40;;
70213;SDS011;60138;55.808;37.078;2022-11-23T11:48:44;5.63;;;4.40;;
70213;SDS011;60138;55.808;37.078;2022-11-23T11:51:19;4.53;;;4.10;;
70213;SDS011;60138;55.808;37.078;2022-11-23T11:54:02;4.43;;;4.03;;
70213;SDS011;60138;55.808;37.078;2022-11-23T11:56:34;4.65;;;4.20;;
70213;SDS011;60138;55.808;37.078;2022-11-23T11:59:23;5.00;;;4.50;;
70213;SDS011;60138;55.808;37.078;2022-11-23T12:02:02;5.22;;;4.72;;
70213;SDS011;60138;55.808;37.078;2022-11-23T12:07:23;5.80;;;4.55;;
70213;SDS011;60138;55.808;37.078;2022-11-23T12:10:20;5.45;;;4.40;;
70213;SDS011;60138;55.808;37.078;2022-11-23T12:12:53;6.40;;;4.55;;
70213;SDS011;60138;55.808;37.078;2022-11-23T12:15:20;8.10;;;5.40;;
70213;SDS011;60138;55.808;37.078;2022-11-23T12:18:01;7.97;;;4.50;;
70213;SDS011;60138;55.808;37.078;2022-11-23T12:20:46;12.00;;;5.68;;
70213;SDS011;60138;55.808;37.078;2022-11-23T12:26:02;5.20;;;4.70;;
70213;SDS011;60138;55.808;37.078;2022-11-23T12:28:56;6.53;;;4.90;;
70213;SDS011;60138;55.808;37.078;2022-11-23T12:31:50;8.60;;;5.05;;
70213;SDS011;60138;55.808;37.078;2022-11-23T12:34:35;8.10;;;5.38;;
70213;SDS011;60138;55.808;37.078;2022-11-23T12:37:26;6.90;;;5.05;;
70213;SDS011;60138;55.808;37.078;2022-11-23T12:42:43;6.40;;;4.15;;
70213;SDS011;60138;55.808;37.078;2022-11-23T12:58:59;5.03;;;4.47;;
70213;SDS011;60138;55.808;37.078;2022-11-23T13:01:29;5.53;;;4.37;;
70213;SDS011;60138;55.808;37.078;2022-11-23T13:12:04;5.72;;;5.22;;
70213;SDS011;60138;55.808;37.078;2022-11-23T13:17:54;6.80;;;4.90;;
70213;SDS011;60138;55.808;37.078;2022-11-23T13:23:08;6.35;;;5.20;;
70213;SDS011;60138;55.808;37.078;2022-11-23T13:25:34;5.28;;;4.38;;
70213;SDS011;60138;55.808;37.078;2022-11-23T13:28:27;5.33;;;4.30;;
70213;SDS011;60138;55.808;37.078;2022-11-23T13:33:47;6.40;;;4.72;;
70213;SDS011;60138;55.808;37.078;2022-11-23T13:38:55;5.18;;;4.57;;
70213;SDS011;60138;55.808;37.078;2022-11-23T13:44:10;5.45;;;4.65;;
70213;SDS011;60138;55.808;37.078;2022-11-23T13:47:21;5.78;;;5.18;;
70213;SDS011;60138;55.808;37.078;2022-11-23T13:54:59;4.97;;;4.47;;
70213;SDS011;60138;55.808;37.078;2022-11-23T13:57:25;4.35;;;3.92;;
70213;SDS011;60138;55.808;37.078;2022-11-23T13:59:51;4.73;;;4.00;;
70213;SDS011;60138;55.808;37.078;2022-11-23T14:02:24;4.72;;;4.10;;
70213;SDS011;60138;55.808;37.078;2022-11-23T14:05:10;6.25;;;5.35;;
70213;SDS011;60138;55.808;37.078;2022-11-23T14:08:14;5.83;;;5.23;;
70213;SDS011;60138;55.808;37.078;2022-11-23T14:10:42;5.20;;;4.30;;
70213;SDS011;60138;55.808;37.078;2022-11-23T14:13:14;5.38;;;4.15;;
70213;SDS011;60138;55.808;37.078;2022-11-23T14:15:44;6.95;;;5.40;;
70213;SDS011;60138;55.808;37.078;2022-11-23T14:18:24;4.78;;;3.95;;
70213;SDS011;60138;55.808;37.078;2022-11-23T14:21:24;5.95;;;5.05;;
70213;SDS011;60138;55.808;37.078;2022-11-23T14:32:41;8.45;;;5.03;;
70213;SDS011;60138;55.808;37.078;2022-11-23T14:35:24;8.55;;;5.45;;
70213;SDS011;60138;55.808;37.078;2022-11-23T14:40:50;12.10;;;7.90;;
70213;SDS011;60138;55.808;37.078;2022-11-23T14:43:39;10.68;;;6.38;;
70213;SDS011;60138;55.808;37.078;2022-11-23T14:46:13;11.05;;;6.60;;
70213;SDS011;60138;55.808;37.078;2022-11-23T14:48:44;12.13;;;6.78;;
70213;SDS011;60138;55.808;37.078;2022-11-23T14:51:15;8.43;;;6.00;;
70213;SDS011;60138;55.808;37.078;2022-11-23T14:53:44;10.47;;;6.80;;
70213;SDS011;60138;55.808;37.078;2022-11-23T14:56:31;16.13;;;8.13;;
70213;SDS011;60138;55.808;37.078;2022-11-23T15:01:52;9.32;;;6.93;;
70213;SDS011;60138;55.808;37.078;2022-11-23T15:04:28;8.60;;;7.65;;
70213;SDS011;60138;55.808;37.078;2022-11-23T15:06:56;10.73;;;6.83;;
70213;SDS011;60138;55.808;37.078;2022-11-23T15:12:40;10.23;;;7.30;;
70213;SDS011;60138;55.808;37.078;2022-11-23T15:15:15;6.82;;;6.13;;
70213;SDS011;60138;55.808;37.078;2022-11-23T15:17:49;7.23;;;6.27;;
70213;SDS011;60138;55.808;37.078;2022-11-23T15:20:16;8.05;;;6.68;;
70213;SDS011;60138;55.808;37.078;2022-11-23T15:22:42;8.95;;;7.65;;
70213;SDS011;60138;55.808;37.078;2022-11-23T15:25:10;7.85;;;6.38;;
70213;SDS011;60138;55.808;37.078;2022-11-23T15:27:39;7.77;;;6.97;;
70213;SDS011;60138;55.808;37.078;2022-11-23T15:30:19;7.50;;;6.22;;
70213;SDS011;60138;55.808;37.078;2022-11-23T15:32:56;6.75;;;6.05;;
70213;SDS011;60138;55.808;37.078;2022-11-23T15:35:41;7.32;;;5.65;;
70213;SDS011;60138;55.808;37.078;2022-11-23T15:38:11;8.20;;;7.30;;
70213;SDS011;60138;55.808;37.078;2022-11-23T15:40:43;7.47;;;6.65;;
70213;SDS011;60138;55.808;37.078;2022-11-23T15:43:11;8.40;;;7.60;;
70213;SDS011;60138;55.808;37.078;2022-11-23T15:50:51;7.90;;;5.18;;
70213;SDS011;60138;55.808;37.078;2022-11-23T15:53:32;9.88;;;7.40;;
70213;SDS011;60138;55.808;37.078;2022-11-23T15:56:12;6.75;;;5.72;;
70213;SDS011;60138;55.808;37.078;2022-11-23T15:58:46;6.97;;;6.03;;
70213;SDS011;60138;55.808;37.078;2022-11-23T16:01:13;7.10;;;5.72;;
70213;SDS011;60138;55.808;37.078;2022-11-23T16:03:41;6.93;;;5.72;;
70213;SDS011;60138;55.808;37.078;2022-11-23T16:06:21;8.30;;;5.82;;
70213;SDS011;60138;55.808;37.078;2022-11-23T16:08:48;6.57;;;5.90;;
70213;SDS011;60138;55.808;37.078;2022-11-23T16:11:21;6.45;;;5.85;;
70213;SDS011;60138;55.808;37.078;2022-11-23T16:14:11;7.00;;;6.30;;
70213;SDS011;60138;55.808;37.078;2022-11-23T16:16:42;6.27;;;5.67;;
70213;SDS011;60138;55.808;37.078;2022-11-23T16:19:42;6.78;;;5.80;;
70213;SDS011;60138;55.808;37.078;2022-11-23T16:22:02;7.30;;;6.60;;
70213;SDS011;60138;55.808;37.078;2022-11-23T16:24:30;7.78;;;5.60;;
70213;SDS011;60138;55.808;37.078;2022-11-23T16:26:58;7.75;;;6.22;;
70213;SDS011;60138;55.808;37.078;2022-11-23T16:29:29;9.75;;;7.85;;
70213;SDS011;60138;55.808;37.078;2022-11-23T16:32:00;9.18;;;7.05;;
70213;SDS011;60138;55.808;37.078;2022-11-23T16:34:27;8.23;;;6.03;;
70213;SDS011;60138;55.808;37.078;2022-11-23T16:36:54;10.57;;;7.47;;
70213;SDS011;60138;55.808;37.078;2022-11-23T16:39:23;9.13;;;7.45;;
70213;SDS011;60138;55.808;37.078;2022-11-23T16:41:50;9.32;;;6.55;;
70213;SDS011;60138;55.808;37.078;2022-11-23T16:44:17;7.72;;;5.63;;
70213;SDS011;60138;55.808;37.078;2022-11-23T16:46:43;9.47;;;7.40;;
70213;SDS011;60138;55.808;37.078;2022-11-23T16:49:12;7.93;;;6.90;;
70213;SDS011;60138;55.808;37.078;2022-11-23T16:51:40;6.57;;;5.45;;
70213;SDS011;60138;55.808;37.078;2022-11-23T16:54:07;6.75;;;6.05;;
70213;SDS011;60138;55.808;37.078;2022-11-23T16:56:33;7.33;;;6.00;;
70213;SDS011;60138;55.808;37.078;2022-11-23T16:58:59;7.72;;;6.40;;
70213;SDS011;60138;55.808;37.078;2022-11-23T17:01:26;7.30;;;6.50;;
70213;SDS011;60138;55.808;37.078;2022-11-23T17:03:52;21.00;;;10.90;;
70213;SDS011;60138;55.808;37.078;2022-11-23T17:06:18;13.15;;;8.95;;
70213;SDS011;60138;55.808;37.078;2022-11-23T17:08:44;10.40;;;7.05;;
70213;SDS011;60138;55.808;37.078;2022-11-23T17:11:14;7.93;;;6.55;;
70213;SDS011;60138;55.808;37.078;2022-11-23T17:13:45;7.68;;;6.60;;
70213;SDS011;60138;55.808;37.078;2022-11-23T17:16:16;10.98;;;8.20;;
70213;SDS011;60138;55.808;37.078;2022-11-23T17:18:44;11.07;;;8.30;;
70213;SDS011;60138;55.808;37.078;2022-11-23T17:21:10;8.35;;;6.78;;
70213;SDS011;60138;55.808;37.078;2022-11-23T17:23:36;9.88;;;7.68;;
70213;SDS011;60138;55.808;37.078;2022-11-23T17:26:03;12.00;;;8.20;;
70213;SDS011;60138;55.808;37.078;2022-11-23T17:28:29;15.13;;;8.25;;
70213;SDS011;60138;55.808;37.078;2022-11-23T17:30:54;11.77;;;7.90;;
70213;SDS011;60138;55.808;37.078;2022-11-23T17:33:20;8.97;;;6.90;;
70213;SDS011;60138;55.808;37.078;2022-11-23T17:35:46;7.97;;;6.20;;